createdAt,value
2022-10-11T00:01:38.320Z,6.12
2022-10-11T00:04:04.838Z,6.20
2022-10-11T00:06:31.320Z,5.72
2022-10-11T00:08:57.765Z,6.15
2022-10-11T00:11:24.202Z,5.54
2022-10-11T00:13:50.633Z,5.89
2022-10-11T00:16:17.045Z,5.86
2022-10-11T00:18:43.438Z,5.55
2022-10-11T00:21:12.857Z,5.71
2022-10-11T00:23:39.958Z,5.97
2022-10-11T00:26:08.293Z,5.57
2022-10-11T00:28:36.636Z,5.99
2022-10-11T00:31:07.609Z,5.97
2022-10-11T00:33:34.518Z,5.35
2022-10-11T00:36:01.210Z,5.67
2022-10-11T00:38:27.627Z,5.56
2022-10-11T00:40:54.018Z,5.32
2022-10-11T00:43:23.178Z,5.61
2022-10-11T00:45:57.719Z,5.59
2022-10-11T00:48:39.756Z,5.56
2022-10-11T00:51:15.448Z,5.36
2022-10-11T00:53:42.458Z,5.55
2022-10-11T00:56:24.807Z,5.30
2022-10-11T00:58:52.379Z,5.41
2022-10-11T01:01:18.916Z,5.15
2022-10-11T01:03:46.142Z,5.41
2022-10-11T01:06:12.609Z,5.15
2022-10-11T01:08:39.318Z,5.32
2022-10-11T01:11:06.401Z,5.19
2022-10-11T01:13:40.409Z,5.24
2022-10-11T01:16:15.743Z,5.39
2022-10-11T01:19:35.570Z,5.41
2022-10-11T01:22:14.137Z,5.32
2022-10-11T01:25:00.797Z,5.17
2022-10-11T01:27:37.857Z,5.39
2022-10-11T01:30:22.409Z,5.38
2022-10-11T01:33:20.419Z,5.12
2022-10-11T01:36:05.264Z,5.44
2022-10-11T01:38:44.758Z,5.57
2022-10-11T01:41:16.495Z,5.22
2022-10-11T01:43:44.020Z,5.53
2022-10-11T01:46:11.014Z,5.51
2022-10-11T01:48:55.017Z,5.40
2022-10-11T01:51:24.285Z,4.92
2022-10-11T01:54:09.419Z,5.26
2022-10-11T01:57:15.003Z,5.34
2022-10-11T02:00:03.017Z,5.33
2022-10-11T02:02:51.465Z,5.36
2022-10-11T02:05:43.974Z,5.44
2022-10-11T02:08:33.385Z,5.40
2022-10-11T02:11:08.734Z,5.22
2022-10-11T02:13:47.177Z,5.26
2022-10-11T02:16:18.746Z,5.31
2022-10-11T02:18:49.940Z,5.32
2022-10-11T02:21:20.166Z,5.50
2022-10-11T02:24:02.935Z,5.40
2022-10-11T02:26:31.993Z,5.22
2022-10-11T02:29:00.671Z,5.60
2022-10-11T02:31:30.075Z,5.59
2022-10-11T02:34:18.981Z,5.85
2022-10-11T02:37:02.822Z,5.68
2022-10-11T02:39:34.420Z,5.46
2022-10-11T02:42:04.741Z,5.67
2022-10-11T02:44:37.285Z,5.78
2022-10-11T02:47:04.838Z,5.74
2022-10-11T02:49:31.903Z,5.88
2022-10-11T02:51:58.863Z,5.70
2022-10-11T02:54:26.502Z,5.82
2022-10-11T02:56:52.963Z,5.72
2022-10-11T02:59:19.336Z,5.83
2022-10-11T03:01:45.744Z,5.69
2022-10-11T03:04:12.431Z,5.98
2022-10-11T03:06:38.845Z,5.93
2022-10-11T03:09:05.209Z,5.83
2022-10-11T03:11:31.606Z,6.14
2022-10-11T03:13:58.062Z,6.01
2022-10-11T03:16:24.521Z,5.62
2022-10-11T03:18:51.175Z,5.87
2022-10-11T03:21:18.544Z,5.62
2022-10-11T03:23:44.900Z,5.68
2022-10-11T03:26:11.264Z,5.36
2022-10-11T03:28:37.759Z,5.66
2022-10-11T03:31:04.199Z,5.64
2022-10-11T03:33:30.596Z,5.63
2022-10-11T03:35:57.009Z,5.78
2022-10-11T03:38:23.468Z,5.71
2022-10-11T03:40:49.861Z,5.76
2022-10-11T03:43:17.058Z,5.55
2022-10-11T03:45:43.777Z,5.95
2022-10-11T03:48:11.272Z,5.94
2022-10-11T03:50:38.329Z,5.91
2022-10-11T03:53:06.240Z,5.84
2022-10-11T03:55:32.714Z,5.38
2022-10-11T03:57:59.119Z,5.88
2022-10-11T04:00:25.549Z,5.85
2022-10-11T04:02:51.976Z,5.92
2022-10-11T04:05:18.455Z,5.78
2022-10-11T04:07:44.871Z,5.83
2022-10-11T04:10:11.316Z,5.59
2022-10-11T04:12:37.875Z,5.29
2022-10-11T04:15:05.913Z,5.51
2022-10-11T04:17:32.334Z,5.64
2022-10-11T04:19:58.692Z,5.68
2022-10-11T04:22:25.093Z,5.33
2022-10-11T04:24:51.468Z,4.78
2022-10-11T04:27:17.872Z,5.07
2022-10-11T04:29:44.282Z,5.01
2022-10-11T04:32:10.674Z,5.08
2022-10-11T04:34:37.725Z,5.42
2022-10-11T04:37:04.140Z,5.49
2022-10-11T04:39:30.603Z,5.36
2022-10-11T04:41:57.008Z,5.25
2022-10-11T04:44:23.424Z,4.81
2022-10-11T04:46:49.848Z,4.89
2022-10-11T04:49:16.305Z,5.21
2022-10-11T04:51:42.765Z,5.15
2022-10-11T04:54:09.188Z,4.93
2022-10-11T04:56:35.621Z,5.02
2022-10-11T04:59:02.050Z,5.11
2022-10-11T05:01:28.683Z,4.97
2022-10-11T05:03:55.053Z,4.74
2022-10-11T05:06:21.551Z,4.85
2022-10-11T05:08:47.909Z,4.63
2022-10-11T05:11:16.588Z,4.70
2022-10-11T05:13:44.377Z,4.94
2022-10-11T05:16:11.979Z,4.52
2022-10-11T05:18:39.900Z,5.03
2022-10-11T05:21:07.782Z,4.96
2022-10-11T05:23:35.798Z,4.93
2022-10-11T05:26:03.652Z,4.95
2022-10-11T05:28:30.694Z,4.53
2022-10-11T05:30:57.194Z,4.56
2022-10-11T05:33:23.773Z,4.50
2022-10-11T05:35:50.560Z,4.73
2022-10-11T05:38:17.382Z,4.41
2022-10-11T05:40:43.973Z,4.66
2022-10-11T05:43:10.422Z,4.82
2022-10-11T05:45:38.855Z,4.90
2022-10-11T05:48:05.578Z,4.73
2022-10-11T05:50:32.488Z,4.67
2022-10-11T05:52:58.915Z,4.63
2022-10-11T05:55:25.587Z,4.56
2022-10-11T05:57:56.557Z,4.16
2022-10-11T06:00:23.981Z,4.53
2022-10-11T06:02:50.545Z,4.53
2022-10-11T06:05:17.093Z,4.58
2022-10-11T06:07:43.785Z,4.62
2022-10-11T06:10:10.488Z,4.61
2022-10-11T06:12:36.858Z,4.50
2022-10-11T06:15:03.824Z,4.72
2022-10-11T06:17:30.276Z,4.35
2022-10-11T06:19:56.641Z,4.76
2022-10-11T06:22:23.066Z,4.92
2022-10-11T06:24:49.499Z,5.11
2022-10-11T06:27:15.885Z,4.91
2022-10-11T06:29:42.272Z,5.01
2022-10-11T06:32:08.706Z,4.96
2022-10-11T06:34:35.044Z,4.92
2022-10-11T06:37:01.442Z,4.98
2022-10-11T06:39:27.871Z,5.42
2022-10-11T06:41:54.278Z,5.50
2022-10-11T06:44:20.706Z,5.55
2022-10-11T06:46:47.125Z,5.66
2022-10-11T06:49:13.505Z,5.72
2022-10-11T06:51:39.998Z,5.73
2022-10-11T06:54:06.390Z,5.83
2022-10-11T06:56:32.863Z,6.05
2022-10-11T06:58:59.369Z,6.26
2022-10-11T07:01:27.248Z,6.38
2022-10-11T07:03:55.525Z,6.43
2022-10-11T07:06:25.240Z,6.40
2022-10-11T07:08:52.439Z,6.42
2022-10-11T07:11:21.435Z,6.44
2022-10-11T07:13:56.117Z,6.62
2022-10-11T07:16:23.328Z,6.63
2022-10-11T07:18:58.773Z,6.96
2022-10-11T07:21:27.746Z,7.05
2022-10-11T07:23:54.310Z,7.14
2022-10-11T07:26:20.739Z,7.32
2022-10-11T07:28:47.385Z,7.18
2022-10-11T07:31:20.294Z,7.44
2022-10-11T07:33:47.029Z,7.64
2022-10-11T07:36:15.570Z,7.65
2022-10-11T07:38:43.873Z,7.79
2022-10-11T07:41:11.181Z,8.30
2022-10-11T07:43:38.541Z,8.44
2022-10-11T07:46:06.009Z,8.75
2022-10-11T07:48:36.308Z,8.98
2022-10-11T07:51:06.771Z,9.67
2022-10-11T07:53:47.632Z,10.11
2022-10-11T07:56:17.200Z,10.53
2022-10-11T07:58:44.385Z,10.27
2022-10-11T08:01:11.618Z,10.99
2022-10-11T08:03:38.523Z,10.47
2022-10-11T08:06:08.255Z,11.31
2022-10-11T08:08:36.118Z,11.95
2022-10-11T08:11:02.732Z,12.14
2022-10-11T08:13:29.170Z,11.49
2022-10-11T08:15:56.114Z,11.21
2022-10-11T08:18:22.615Z,11.37
2022-10-11T08:20:49.092Z,11.73
2022-10-11T08:23:16.606Z,12.09
2022-10-11T08:25:47.567Z,12.49
2022-10-11T08:28:14.358Z,12.33
2022-10-11T08:30:40.826Z,12.18
2022-10-11T08:33:08.680Z,11.84
2022-10-11T08:35:36.149Z,11.62
2022-10-11T08:38:02.823Z,11.54
2022-10-11T08:40:34.278Z,12.27
2022-10-11T08:43:08.242Z,12.99
2022-10-11T08:45:49.063Z,13.31
2022-10-11T08:48:25.688Z,14.73
2022-10-11T08:50:54.366Z,14.38
2022-10-11T08:53:42.640Z,13.60
2022-10-11T08:56:13.467Z,14.72
2022-10-11T08:58:46.510Z,15.88
2022-10-11T09:01:22.029Z,16.21
2022-10-11T09:03:49.302Z,16.77
2022-10-11T09:06:37.063Z,16.18
2022-10-11T09:09:21.297Z,16.66
2022-10-11T09:11:56.869Z,17.92
2022-10-11T09:14:29.322Z,17.34
2022-10-11T09:17:35.365Z,17.18
2022-10-11T09:20:23.199Z,17.68
2022-10-11T09:23:07.953Z,18.23
2022-10-11T09:25:43.351Z,18.77
2022-10-11T09:28:21.899Z,18.26
2022-10-11T09:30:51.280Z,18.70
2022-10-11T09:33:36.379Z,16.92
2022-10-11T09:36:30.215Z,16.67
2022-10-11T09:39:06.780Z,18.01
2022-10-11T09:41:41.265Z,18.12
2022-10-11T09:44:08.162Z,17.73
2022-10-11T09:46:34.510Z,17.95
2022-10-11T09:49:03.996Z,19.46
2022-10-11T09:51:31.071Z,19.96
2022-10-11T09:54:00.652Z,19.77
2022-10-11T09:56:29.892Z,18.47
2022-10-11T09:59:08.502Z,18.56
2022-10-11T10:01:35.840Z,17.45
2022-10-11T10:04:12.286Z,16.70
2022-10-11T10:06:39.529Z,17.29
2022-10-11T10:09:20.338Z,15.37
2022-10-11T10:11:47.110Z,15.35
2022-10-11T10:14:29.181Z,15.05
2022-10-11T10:17:05.448Z,15.23
2022-10-11T10:19:53.887Z,15.48
2022-10-11T10:22:38.361Z,15.44
2022-10-11T10:25:06.214Z,15.79
2022-10-11T10:27:32.701Z,15.82
2022-10-11T10:30:07.859Z,15.53
2022-10-11T10:32:48.646Z,15.81
2022-10-11T10:35:51.133Z,16.28
2022-10-11T10:38:37.211Z,15.56
2022-10-11T10:41:11.531Z,15.31
2022-10-11T10:43:39.971Z,16.25
2022-10-11T10:46:06.620Z,16.61
2022-10-11T10:49:28.297Z,15.84
2022-10-11T10:52:06.747Z,15.34
2022-10-11T10:54:56.540Z,16.73
2022-10-11T10:57:53.414Z,15.87
2022-10-11T11:00:22.385Z,15.47
2022-10-11T11:02:57.302Z,15.03
2022-10-11T11:05:40.241Z,15.25
2022-10-11T11:08:40.653Z,15.29
2022-10-11T11:11:35.082Z,15.47
2022-10-11T11:14:14.649Z,15.61
2022-10-11T11:16:49.056Z,15.14
2022-10-11T11:19:15.373Z,15.20
2022-10-11T11:21:57.394Z,15.37
2022-10-11T11:24:23.718Z,15.31
2022-10-11T11:26:55.920Z,15.27
2022-10-11T11:29:55.563Z,15.08
2022-10-11T11:32:45.839Z,15.37
2022-10-11T11:35:28.472Z,15.72
2022-10-11T11:38:06.326Z,15.31
2022-10-11T11:40:39.396Z,15.62
2022-10-11T11:43:22.597Z,15.47
2022-10-11T11:45:56.393Z,15.25
2022-10-11T11:48:25.311Z,15.36
2022-10-11T11:51:08.903Z,15.40
2022-10-11T11:54:02.040Z,14.96
2022-10-11T11:56:46.466Z,15.41
2022-10-11T11:59:35.914Z,15.43
2022-10-11T12:02:21.199Z,15.48
2022-10-11T12:04:49.478Z,15.27
2022-10-11T12:07:19.061Z,15.05
2022-10-11T12:09:47.818Z,15.48
2022-10-11T12:12:31.889Z,15.05
2022-10-11T12:15:18.446Z,15.11
2022-10-11T12:17:56.678Z,15.25
2022-10-11T12:20:36.258Z,15.20
2022-10-11T12:23:25.260Z,14.99
2022-10-11T12:26:28.794Z,14.99
2022-10-11T12:29:16.825Z,14.40
2022-10-11T12:31:46.210Z,14.95
2022-10-11T12:34:20.243Z,15.27
2022-10-11T12:36:49.187Z,15.18
2022-10-11T12:39:18.617Z,15.32
2022-10-11T12:41:47.988Z,14.94
2022-10-11T12:44:29.791Z,14.82
2022-10-11T12:46:56.403Z,14.66
2022-10-11T12:49:31.954Z,14.75
2022-10-11T12:52:02.471Z,15.15
2022-10-11T12:54:53.321Z,14.83
2022-10-11T12:57:40.472Z,15.05
2022-10-11T13:00:24.949Z,14.93
2022-10-11T13:02:51.622Z,14.37
2022-10-11T13:05:24.106Z,14.35
2022-10-11T13:07:53.158Z,14.11
2022-10-11T13:10:25.963Z,14.40
2022-10-11T13:12:54.618Z,14.46
2022-10-11T13:15:22.627Z,14.44
2022-10-11T13:17:49.371Z,14.84
2022-10-11T13:20:18.471Z,14.31
2022-10-11T13:22:48.049Z,14.55
2022-10-11T13:25:18.152Z,14.47
2022-10-11T13:27:45.455Z,14.74
2022-10-11T13:30:19.451Z,15.13
2022-10-11T13:32:46.090Z,16.25
2022-10-11T13:35:48.335Z,17.42
2022-10-11T13:38:22.040Z,18.05
2022-10-11T13:40:51.126Z,18.60
2022-10-11T13:43:22.234Z,18.52
2022-10-11T13:45:48.785Z,18.10
2022-10-11T13:48:16.532Z,18.16
2022-10-11T13:50:43.175Z,17.43
2022-10-11T13:53:09.508Z,17.95
2022-10-11T13:55:46.856Z,17.86
2022-10-11T13:58:28.511Z,18.59
2022-10-11T14:00:57.584Z,17.60
2022-10-11T14:03:35.567Z,16.29
2022-10-11T14:06:02.198Z,15.93
2022-10-11T14:08:39.574Z,15.85
2022-10-11T14:11:07.546Z,15.71
2022-10-11T14:13:46.228Z,15.45
2022-10-11T14:16:32.887Z,15.62
2022-10-11T14:18:59.260Z,15.44
2022-10-11T14:21:28.897Z,15.65
2022-10-11T14:24:03.506Z,15.80
2022-10-11T14:26:39.570Z,15.24
2022-10-11T14:29:12.098Z,15.77
2022-10-11T14:31:42.147Z,15.71
2022-10-11T14:34:17.427Z,15.50
2022-10-11T14:36:43.842Z,15.66
2022-10-11T14:39:14.473Z,15.30
2022-10-11T14:41:40.951Z,15.22
2022-10-11T14:44:07.482Z,15.04
2022-10-11T14:46:34.459Z,15.60
2022-10-11T14:49:00.855Z,15.11
2022-10-11T14:51:34.321Z,15.48
2022-10-11T14:54:00.768Z,15.16
2022-10-11T14:56:27.234Z,15.33
2022-10-11T14:58:53.775Z,15.34
2022-10-11T15:01:20.234Z,15.31
2022-10-11T15:03:46.746Z,15.23
2022-10-11T15:06:25.234Z,14.65
2022-10-11T15:08:51.754Z,14.65
2022-10-11T15:11:20.223Z,14.71
2022-10-11T15:13:47.227Z,14.42
2022-10-11T15:16:16.230Z,14.72
2022-10-11T15:18:43.454Z,14.46
2022-10-11T15:21:13.930Z,13.97
2022-10-11T15:23:40.358Z,13.92
2022-10-11T15:26:07.300Z,13.98
2022-10-11T15:28:34.056Z,13.73
2022-10-11T15:31:00.719Z,13.57
2022-10-11T15:33:27.117Z,13.85
2022-10-11T15:35:53.562Z,14.02
2022-10-11T15:38:23.130Z,14.25
2022-10-11T15:40:50.112Z,14.20
2022-10-11T15:43:20.776Z,14.41
2022-10-11T15:45:50.091Z,14.40
2022-10-11T15:48:18.245Z,14.19
2022-10-11T15:50:45.497Z,14.45
2022-10-11T15:53:14.365Z,14.22
2022-10-11T15:55:46.455Z,14.05
2022-10-11T15:58:22.501Z,14.25
2022-10-11T16:00:52.426Z,14.49
2022-10-11T16:03:18.819Z,14.52
2022-10-11T16:05:45.247Z,14.39
2022-10-11T16:08:12.179Z,14.25
2022-10-11T16:10:39.422Z,13.90
2022-10-11T16:13:06.147Z,13.64
2022-10-11T16:15:32.662Z,13.62
2022-10-11T16:17:59.080Z,13.49
2022-10-11T16:20:25.550Z,13.49
2022-10-11T16:22:53.787Z,13.01
2022-10-11T16:25:20.902Z,13.31
2022-10-11T16:27:47.355Z,12.55
2022-10-11T16:30:15.556Z,12.10
2022-10-11T16:32:42.615Z,12.80
2022-10-11T16:35:10.968Z,12.51
2022-10-11T16:37:37.416Z,12.66
2022-10-11T16:40:06.070Z,12.79
2022-10-11T16:42:35.316Z,12.82
2022-10-11T16:45:01.739Z,12.60
2022-10-11T16:47:28.105Z,12.33
2022-10-11T16:49:54.485Z,11.97
2022-10-11T16:52:20.888Z,12.08
2022-10-11T16:54:47.818Z,11.87
2022-10-11T16:57:16.390Z,12.01
2022-10-11T16:59:42.920Z,11.79
2022-10-11T17:02:15.754Z,11.90
2022-10-11T17:04:42.311Z,11.92
2022-10-11T17:07:08.742Z,11.48
2022-10-11T17:09:35.305Z,11.66
2022-10-11T17:12:02.430Z,11.36
2022-10-11T17:14:28.874Z,11.52
2022-10-11T17:16:55.324Z,11.03
2022-10-11T17:19:21.726Z,11.33
2022-10-11T17:21:48.154Z,10.99
2022-10-11T17:24:14.578Z,10.77
2022-10-11T17:26:40.978Z,10.80
2022-10-11T17:29:07.438Z,10.45
2022-10-11T17:31:33.821Z,10.73
2022-10-11T17:34:00.919Z,10.78
2022-10-11T17:36:30.801Z,10.37
2022-10-11T17:38:59.113Z,10.61
2022-10-11T17:41:30.907Z,10.54
2022-10-11T17:43:58.370Z,10.73
2022-10-11T17:46:24.809Z,10.44
2022-10-11T17:48:52.735Z,9.84
2022-10-11T17:51:19.838Z,10.00
2022-10-11T17:53:47.515Z,9.97
2022-10-11T17:56:25.261Z,10.10
2022-10-11T17:58:55.855Z,10.06
2022-10-11T18:01:25.420Z,10.01
2022-10-11T18:03:57.637Z,10.11
2022-10-11T18:06:26.131Z,10.37
2022-10-11T18:08:52.614Z,10.04
2022-10-11T18:11:19.889Z,10.12
2022-10-11T18:13:51.611Z,10.03
2022-10-11T18:16:20.869Z,9.36
2022-10-11T18:18:47.500Z,9.64
2022-10-11T18:21:14.370Z,9.30
2022-10-11T18:23:40.761Z,9.74
2022-10-11T18:26:16.656Z,9.51
2022-10-11T18:28:44.145Z,9.83
2022-10-11T18:31:14.713Z,9.61
2022-10-11T18:33:41.710Z,9.24
2022-10-11T18:36:09.194Z,9.50
2022-10-11T18:38:36.750Z,9.45
2022-10-11T18:41:08.252Z,9.37
2022-10-11T18:43:35.432Z,9.79
2022-10-11T18:46:14.971Z,9.81
2022-10-11T18:48:45.823Z,9.45
2022-10-11T18:51:20.131Z,9.28
2022-10-11T18:53:47.874Z,9.17
2022-10-11T18:56:16.722Z,9.21
2022-10-11T18:58:44.173Z,9.47
2022-10-11T19:01:16.738Z,9.38
2022-10-11T19:03:47.919Z,9.24
2022-10-11T19:06:17.029Z,9.42
2022-10-11T19:08:49.430Z,9.14
2022-10-11T19:11:17.080Z,9.17
2022-10-11T19:13:43.805Z,9.22
2022-10-11T19:16:13.607Z,9.02
2022-10-11T19:18:44.192Z,9.09
2022-10-11T19:21:13.017Z,9.07
2022-10-11T19:23:42.346Z,8.71
2022-10-11T19:26:17.455Z,8.93
2022-10-11T19:28:44.319Z,8.55
2022-10-11T19:31:13.485Z,8.58
2022-10-11T19:33:39.929Z,8.28
2022-10-11T19:36:06.788Z,8.69
2022-10-11T19:38:35.152Z,8.72
2022-10-11T19:41:03.026Z,8.37
2022-10-11T19:43:29.532Z,8.32
2022-10-11T19:46:04.289Z,8.08
2022-10-11T19:48:31.657Z,8.10
2022-10-11T19:51:06.665Z,7.90
2022-10-11T19:53:33.195Z,8.20
2022-10-11T19:56:04.387Z,8.23
2022-10-11T19:58:31.131Z,8.13
2022-10-11T20:01:06.209Z,8.11
2022-10-11T20:03:33.322Z,8.13
2022-10-11T20:06:00.709Z,7.93
2022-10-11T20:08:28.048Z,7.58
2022-10-11T20:10:55.021Z,7.63
2022-10-11T20:13:21.523Z,7.73
2022-10-11T20:15:48.018Z,7.67
2022-10-11T20:18:14.418Z,7.81
2022-10-11T20:20:51.496Z,7.44
2022-10-11T20:23:18.405Z,8.10
2022-10-11T20:25:45.425Z,7.98
2022-10-11T20:28:12.544Z,8.16
2022-10-11T20:30:42.979Z,7.89
2022-10-11T20:33:09.451Z,7.84
2022-10-11T20:35:35.875Z,7.89
2022-10-11T20:38:02.298Z,7.97
2022-10-11T20:40:28.682Z,7.66
2022-10-11T20:42:55.082Z,7.60
2022-10-11T20:45:22.322Z,7.65
2022-10-11T20:47:48.763Z,7.48
2022-10-11T20:50:18.446Z,7.55
2022-10-11T20:52:47.589Z,7.45
2022-10-11T20:55:13.957Z,7.41
2022-10-11T20:57:40.325Z,7.62
2022-10-11T21:00:07.539Z,7.55
2022-10-11T21:02:34.140Z,7.60
2022-10-11T21:05:00.909Z,7.44
2022-10-11T21:07:27.279Z,7.24
2022-10-11T21:09:53.710Z,6.94
2022-10-11T21:12:20.108Z,7.28
2022-10-11T21:14:46.519Z,7.24
2022-10-11T21:17:12.926Z,7.09
2022-10-11T21:19:39.321Z,6.86
2022-10-11T21:22:05.705Z,7.00
2022-10-11T21:24:32.178Z,6.73
2022-10-11T21:27:00.882Z,6.74
2022-10-11T21:29:27.484Z,6.54
2022-10-11T21:31:53.853Z,6.02
2022-10-11T21:34:20.277Z,6.41
2022-10-11T21:36:46.663Z,6.76
2022-10-11T21:39:13.088Z,6.98
2022-10-11T21:41:39.557Z,6.54
2022-10-11T21:44:05.934Z,6.41
2022-10-11T21:47:01.090Z,6.77
2022-10-11T21:49:19.337Z,6.56
2022-10-11T21:51:45.817Z,6.44
2022-10-11T21:54:12.222Z,6.73
2022-10-11T21:56:38.601Z,6.81
2022-10-11T21:59:07.921Z,6.72
2022-10-11T22:01:37.630Z,6.11
2022-10-11T22:04:04.830Z,6.08
2022-10-11T22:06:31.448Z,6.57
2022-10-11T22:08:57.800Z,6.78
2022-10-11T22:11:24.191Z,6.79
2022-10-11T22:13:50.610Z,6.67
2022-10-11T22:16:17.003Z,6.43
2022-10-11T22:18:43.372Z,6.05
2022-10-11T22:21:13.002Z,6.38
2022-10-11T22:23:44.715Z,6.58
2022-10-11T22:26:14.096Z,6.39
2022-10-11T22:28:41.006Z,6.83
2022-10-11T22:31:09.634Z,6.63
2022-10-11T22:33:36.622Z,6.99
2022-10-11T22:36:06.353Z,6.58
2022-10-11T22:38:34.917Z,5.96
2022-10-11T22:41:01.305Z,6.13
2022-10-11T22:43:27.919Z,6.01
2022-10-11T22:45:54.351Z,5.97
2022-10-11T22:48:20.783Z,5.89
2022-10-11T22:50:47.349Z,6.34
2022-10-11T22:53:14.569Z,6.11
2022-10-11T22:55:41.114Z,6.09
2022-10-11T22:58:07.876Z,6.06
2022-10-11T23:00:34.865Z,6.22
2022-10-11T23:03:01.228Z,6.29
2022-10-11T23:05:27.705Z,5.85
2022-10-11T23:07:54.255Z,5.50
2022-10-11T23:10:20.775Z,5.95
2022-10-11T23:12:47.179Z,5.62
2022-10-11T23:15:13.636Z,6.03
2022-10-11T23:17:40.143Z,6.04
2022-10-11T23:20:07.084Z,5.96
2022-10-11T23:22:33.477Z,5.91
2022-10-11T23:24:59.920Z,5.89
2022-10-11T23:27:26.335Z,5.65
2022-10-11T23:29:52.682Z,5.98
2022-10-11T23:32:19.058Z,6.04
2022-10-11T23:34:45.424Z,6.11
2022-10-11T23:37:11.805Z,5.77
2022-10-11T23:39:38.221Z,5.72
2022-10-11T23:42:04.724Z,5.72
2022-10-11T23:44:31.112Z,5.73
2022-10-11T23:46:57.505Z,5.59
2022-10-11T23:49:23.945Z,5.29
2022-10-11T23:51:50.357Z,5.41
2022-10-11T23:54:16.727Z,5.43
2022-10-11T23:56:43.107Z,6.00
2022-10-11T23:59:09.528Z,6.14
